sensor_id;sensor_type;location;lat;lon;timestamp;P1;durP1;ratioP1;P2;durP2;ratioP2
70320;SDS011;61127;55.826;37.046;2022-12-20T00:02:13;11.98;;;4.72;;
70320;SDS011;61127;55.826;37.046;2022-12-20T00:04:40;10.63;;;4.30;;
70320;SDS011;61127;55.826;37.046;2022-12-20T00:07:05;11.52;;;4.68;;
70320;SDS011;61127;55.826;37.046;2022-12-20T00:09:31;12.90;;;4.23;;
70320;SDS011;61127;55.826;37.046;2022-12-20T00:11:56;10.07;;;3.60;;
70320;SDS011;61127;55.826;37.046;2022-12-20T00:14:23;9.27;;;3.60;;
70320;SDS011;61127;55.826;37.046;2022-12-20T00:16:49;9.63;;;4.00;;
70320;SDS011;61127;55.826;37.046;2022-12-20T00:19:14;8.23;;;3.77;;
70320;SDS011;61127;55.826;37.046;2022-12-20T00:21:40;10.80;;;4.60;;
70320;SDS011;61127;55.826;37.046;2022-12-20T00:24:06;8.35;;;3.80;;
70320;SDS011;61127;55.826;37.046;2022-12-20T00:26:32;9.85;;;3.85;;
70320;SDS011;61127;55.826;37.046;2022-12-20T00:28:58;10.37;;;4.90;;
70320;SDS011;61127;55.826;37.046;2022-12-20T00:31:25;10.10;;;3.50;;
70320;SDS011;61127;55.826;37.046;2022-12-20T00:33:51;13.75;;;5.65;;
70320;SDS011;61127;55.826;37.046;2022-12-20T00:36:18;15.60;;;6.30;;
70320;SDS011;61127;55.826;37.046;2022-12-20T00:38:45;16.20;;;6.05;;
70320;SDS011;61127;55.826;37.046;2022-12-20T00:41:13;12.60;;;4.80;;
70320;SDS011;61127;55.826;37.046;2022-12-20T00:43:38;12.95;;;5.00;;
70320;SDS011;61127;55.826;37.046;2022-12-20T00:46:05;13.40;;;5.03;;
70320;SDS011;61127;55.826;37.046;2022-12-20T00:48:31;10.40;;;4.35;;
70320;SDS011;61127;55.826;37.046;2022-12-20T00:51:01;11.98;;;5.35;;
70320;SDS011;61127;55.826;37.046;2022-12-20T00:53:27;14.87;;;4.90;;
70320;SDS011;61127;55.826;37.046;2022-12-20T00:55:53;12.10;;;5.20;;
70320;SDS011;61127;55.826;37.046;2022-12-20T00:58:19;10.75;;;4.72;;
70320;SDS011;61127;55.826;37.046;2022-12-20T01:00:44;11.40;;;4.33;;
70320;SDS011;61127;55.826;37.046;2022-12-20T01:03:10;12.65;;;4.60;;
70320;SDS011;61127;55.826;37.046;2022-12-20T01:05:36;14.70;;;5.10;;
70320;SDS011;61127;55.826;37.046;2022-12-20T01:08:02;12.13;;;4.35;;
70320;SDS011;61127;55.826;37.046;2022-12-20T01:10:28;16.13;;;5.67;;
70320;SDS011;61127;55.826;37.046;2022-12-20T01:12:53;13.30;;;4.97;;
70320;SDS011;61127;55.826;37.046;2022-12-20T01:15:21;13.30;;;5.07;;
70320;SDS011;61127;55.826;37.046;2022-12-20T01:17:47;10.77;;;4.22;;
70320;SDS011;61127;55.826;37.046;2022-12-20T01:20:13;11.93;;;4.72;;
70320;SDS011;61127;55.826;37.046;2022-12-20T01:22:38;16.37;;;6.63;;
70320;SDS011;61127;55.826;37.046;2022-12-20T01:25:04;14.07;;;6.63;;
70320;SDS011;61127;55.826;37.046;2022-12-20T01:27:30;12.77;;;4.97;;
70320;SDS011;61127;55.826;37.046;2022-12-20T01:29:56;17.40;;;6.13;;
70320;SDS011;61127;55.826;37.046;2022-12-20T01:32:21;12.53;;;5.00;;
70320;SDS011;61127;55.826;37.046;2022-12-20T01:34:47;13.67;;;6.10;;
70320;SDS011;61127;55.826;37.046;2022-12-20T01:37:13;12.52;;;5.55;;
70320;SDS011;61127;55.826;37.046;2022-12-20T01:39:38;13.30;;;5.10;;
70320;SDS011;61127;55.826;37.046;2022-12-20T01:42:04;13.63;;;5.33;;
70320;SDS011;61127;55.826;37.046;2022-12-20T01:46:56;14.67;;;6.37;;
70320;SDS011;61127;55.826;37.046;2022-12-20T01:51:51;14.40;;;5.63;;
70320;SDS011;61127;55.826;37.046;2022-12-20T01:54:20;13.05;;;5.47;;
70320;SDS011;61127;55.826;37.046;2022-12-20T01:56:49;12.73;;;4.47;;
70320;SDS011;61127;55.826;37.046;2022-12-20T01:59:18;17.02;;;6.40;;
70320;SDS011;61127;55.826;37.046;2022-12-20T02:01:44;14.53;;;6.80;;
70320;SDS011;61127;55.826;37.046;2022-12-20T02:04:10;12.57;;;5.60;;
70320;SDS011;61127;55.826;37.046;2022-12-20T02:06:36;15.75;;;6.70;;
70320;SDS011;61127;55.826;37.046;2022-12-20T02:09:02;14.00;;;5.67;;
70320;SDS011;61127;55.826;37.046;2022-12-20T02:16:52;16.85;;;5.82;;
70320;SDS011;61127;55.826;37.046;2022-12-20T02:22:25;15.03;;;5.30;;
70320;SDS011;61127;55.826;37.046;2022-12-20T02:30:16;13.43;;;4.77;;
70320;SDS011;61127;55.826;37.046;2022-12-20T02:35:11;17.02;;;5.70;;
70320;SDS011;61127;55.826;37.046;2022-12-20T02:37:51;16.75;;;6.00;;
70320;SDS011;61127;55.826;37.046;2022-12-20T02:40:19;15.25;;;5.75;;
70320;SDS011;61127;55.826;37.046;2022-12-20T02:42:46;15.03;;;5.27;;
70320;SDS011;61127;55.826;37.046;2022-12-20T02:45:14;16.30;;;5.35;;
70320;SDS011;61127;55.826;37.046;2022-12-20T02:50:16;20.95;;;5.65;;
70320;SDS011;61127;55.826;37.046;2022-12-20T02:52:42;17.55;;;5.60;;
70320;SDS011;61127;55.826;37.046;2022-12-20T02:55:09;15.67;;;5.13;;
70320;SDS011;61127;55.826;37.046;2022-12-20T02:57:44;17.02;;;5.70;;
70320;SDS011;61127;55.826;37.046;2022-12-20T03:00:12;14.95;;;5.53;;
70320;SDS011;61127;55.826;37.046;2022-12-20T03:02:38;17.38;;;5.10;;
70320;SDS011;61127;55.826;37.046;2022-12-20T03:05:24;14.35;;;4.75;;
70320;SDS011;61127;55.826;37.046;2022-12-20T03:07:51;18.43;;;5.30;;
70320;SDS011;61127;55.826;37.046;2022-12-20T03:10:20;16.25;;;5.20;;
70320;SDS011;61127;55.826;37.046;2022-12-20T03:12:46;13.70;;;4.47;;
70320;SDS011;61127;55.826;37.046;2022-12-20T03:15:13;17.87;;;5.27;;
70320;SDS011;61127;55.826;37.046;2022-12-20T03:17:38;15.90;;;5.38;;
70320;SDS011;61127;55.826;37.046;2022-12-20T03:20:05;18.60;;;5.55;;
70320;SDS011;61127;55.826;37.046;2022-12-20T03:22:31;18.40;;;5.70;;
70320;SDS011;61127;55.826;37.046;2022-12-20T03:24:59;16.30;;;5.70;;
70320;SDS011;61127;55.826;37.046;2022-12-20T03:27:26;16.45;;;5.72;;
70320;SDS011;61127;55.826;37.046;2022-12-20T03:29:52;15.35;;;5.75;;
70320;SDS011;61127;55.826;37.046;2022-12-20T03:32:18;17.88;;;5.43;;
70320;SDS011;61127;55.826;37.046;2022-12-20T03:34:47;15.53;;;6.23;;
70320;SDS011;61127;55.826;37.046;2022-12-20T03:37:15;11.88;;;4.78;;
70320;SDS011;61127;55.826;37.046;2022-12-20T03:39:41;14.45;;;4.80;;
70320;SDS011;61127;55.826;37.046;2022-12-20T03:42:07;13.70;;;5.32;;
70320;SDS011;61127;55.826;37.046;2022-12-20T03:44:34;15.50;;;4.88;;
70320;SDS011;61127;55.826;37.046;2022-12-20T03:46:59;17.10;;;5.87;;
70320;SDS011;61127;55.826;37.046;2022-12-20T03:49:25;15.20;;;4.82;;
70320;SDS011;61127;55.826;37.046;2022-12-20T03:51:51;15.38;;;5.03;;
70320;SDS011;61127;55.826;37.046;2022-12-20T03:54:18;16.87;;;5.20;;
70320;SDS011;61127;55.826;37.046;2022-12-20T03:57:03;15.05;;;5.38;;
70320;SDS011;61127;55.826;37.046;2022-12-20T03:59:30;13.95;;;4.65;;
70320;SDS011;61127;55.826;37.046;2022-12-20T04:01:56;16.67;;;5.40;;
70320;SDS011;61127;55.826;37.046;2022-12-20T04:04:23;19.38;;;6.00;;
70320;SDS011;61127;55.826;37.046;2022-12-20T04:06:48;16.92;;;6.35;;
70320;SDS011;61127;55.826;37.046;2022-12-20T04:09:14;17.33;;;5.70;;
70320;SDS011;61127;55.826;37.046;2022-12-20T04:11:46;17.88;;;5.90;;
70320;SDS011;61127;55.826;37.046;2022-12-20T04:14:13;19.38;;;6.15;;
70320;SDS011;61127;55.826;37.046;2022-12-20T04:16:39;12.85;;;4.72;;
70320;SDS011;61127;55.826;37.046;2022-12-20T04:19:05;16.63;;;6.23;;
70320;SDS011;61127;55.826;37.046;2022-12-20T04:21:44;17.25;;;6.22;;
70320;SDS011;61127;55.826;37.046;2022-12-20T04:24:12;16.75;;;6.07;;
70320;SDS011;61127;55.826;37.046;2022-12-20T04:26:44;22.27;;;6.22;;
70320;SDS011;61127;55.826;37.046;2022-12-20T04:29:11;19.75;;;6.10;;
70320;SDS011;61127;55.826;37.046;2022-12-20T04:31:38;18.90;;;6.87;;
70320;SDS011;61127;55.826;37.046;2022-12-20T04:34:04;25.17;;;8.80;;
70320;SDS011;61127;55.826;37.046;2022-12-20T04:36:33;19.30;;;6.53;;
70320;SDS011;61127;55.826;37.046;2022-12-20T04:39:01;21.57;;;6.73;;
70320;SDS011;61127;55.826;37.046;2022-12-20T04:41:32;16.40;;;5.90;;
70320;SDS011;61127;55.826;37.046;2022-12-20T04:44:06;17.95;;;6.53;;
70320;SDS011;61127;55.826;37.046;2022-12-20T04:46:35;23.80;;;6.95;;
70320;SDS011;61127;55.826;37.046;2022-12-20T04:49:01;21.15;;;6.95;;
70320;SDS011;61127;55.826;37.046;2022-12-20T04:51:30;25.37;;;6.87;;
70320;SDS011;61127;55.826;37.046;2022-12-20T04:53:55;21.10;;;7.13;;
70320;SDS011;61127;55.826;37.046;2022-12-20T04:59:08;23.17;;;7.50;;
70320;SDS011;61127;55.826;37.046;2022-12-20T05:01:34;22.65;;;6.93;;
70320;SDS011;61127;55.826;37.046;2022-12-20T05:04:00;20.58;;;7.22;;
70320;SDS011;61127;55.826;37.046;2022-12-20T05:06:35;20.35;;;7.55;;
70320;SDS011;61127;55.826;37.046;2022-12-20T05:09:00;17.38;;;6.30;;
70320;SDS011;61127;55.826;37.046;2022-12-20T05:11:26;24.20;;;6.80;;
70320;SDS011;61127;55.826;37.046;2022-12-20T05:13:54;22.60;;;7.45;;
70320;SDS011;61127;55.826;37.046;2022-12-20T05:16:21;19.08;;;6.82;;
70320;SDS011;61127;55.826;37.046;2022-12-20T05:18:47;22.17;;;7.03;;
70320;SDS011;61127;55.826;37.046;2022-12-20T05:21:14;19.90;;;7.20;;
70320;SDS011;61127;55.826;37.046;2022-12-20T05:23:58;23.52;;;7.60;;
70320;SDS011;61127;55.826;37.046;2022-12-20T05:26:56;22.95;;;8.30;;
70320;SDS011;61127;55.826;37.046;2022-12-20T05:29:22;21.40;;;6.87;;
70320;SDS011;61127;55.826;37.046;2022-12-20T05:31:47;19.48;;;6.80;;
70320;SDS011;61127;55.826;37.046;2022-12-20T05:34:15;22.33;;;7.43;;
70320;SDS011;61127;55.826;37.046;2022-12-20T05:36:46;21.53;;;7.17;;
70320;SDS011;61127;55.826;37.046;2022-12-20T05:39:12;19.35;;;7.50;;
70320;SDS011;61127;55.826;37.046;2022-12-20T05:41:39;21.75;;;7.47;;
70320;SDS011;61127;55.826;37.046;2022-12-20T05:44:06;23.93;;;7.80;;
70320;SDS011;61127;55.826;37.046;2022-12-20T05:46:40;21.55;;;7.30;;
70320;SDS011;61127;55.826;37.046;2022-12-20T05:49:11;25.05;;;7.00;;
70320;SDS011;61127;55.826;37.046;2022-12-20T05:51:36;22.23;;;7.40;;
70320;SDS011;61127;55.826;37.046;2022-12-20T05:54:26;19.52;;;6.32;;
70320;SDS011;61127;55.826;37.046;2022-12-20T05:57:05;23.05;;;6.70;;
70320;SDS011;61127;55.826;37.046;2022-12-20T05:59:35;18.38;;;6.50;;
70320;SDS011;61127;55.826;37.046;2022-12-20T06:02:03;19.50;;;6.40;;
70320;SDS011;61127;55.826;37.046;2022-12-20T06:04:31;19.40;;;6.80;;
70320;SDS011;61127;55.826;37.046;2022-12-20T06:06:57;24.20;;;7.80;;
70320;SDS011;61127;55.826;37.046;2022-12-20T06:09:24;23.92;;;7.07;;
70320;SDS011;61127;55.826;37.046;2022-12-20T06:11:58;20.88;;;7.22;;
70320;SDS011;61127;55.826;37.046;2022-12-20T06:14:26;20.15;;;6.43;;
70320;SDS011;61127;55.826;37.046;2022-12-20T06:16:54;19.40;;;6.93;;
70320;SDS011;61127;55.826;37.046;2022-12-20T06:19:20;19.08;;;5.90;;
70320;SDS011;61127;55.826;37.046;2022-12-20T06:21:46;20.90;;;7.60;;
70320;SDS011;61127;55.826;37.046;2022-12-20T06:24:15;21.98;;;6.75;;
70320;SDS011;61127;55.826;37.046;2022-12-20T06:26:44;19.45;;;6.57;;
70320;SDS011;61127;55.826;37.046;2022-12-20T06:29:11;17.17;;;6.23;;
70320;SDS011;61127;55.826;37.046;2022-12-20T06:31:48;19.58;;;6.78;;
70320;SDS011;61127;55.826;37.046;2022-12-20T06:34:15;22.77;;;6.90;;
70320;SDS011;61127;55.826;37.046;2022-12-20T06:36:42;20.10;;;6.63;;
70320;SDS011;61127;55.826;37.046;2022-12-20T06:39:15;19.58;;;6.97;;
70320;SDS011;61127;55.826;37.046;2022-12-20T06:41:49;17.50;;;6.53;;
70320;SDS011;61127;55.826;37.046;2022-12-20T06:44:16;19.95;;;6.57;;
70320;SDS011;61127;55.826;37.046;2022-12-20T06:46:44;19.15;;;6.18;;
70320;SDS011;61127;55.826;37.046;2022-12-20T06:49:09;18.63;;;6.43;;
70320;SDS011;61127;55.826;37.046;2022-12-20T06:51:35;15.77;;;5.63;;
70320;SDS011;61127;55.826;37.046;2022-12-20T06:54:01;15.18;;;4.82;;
70320;SDS011;61127;55.826;37.046;2022-12-20T06:56:32;17.87;;;5.87;;
70320;SDS011;61127;55.826;37.046;2022-12-20T06:58:58;16.25;;;5.20;;
70320;SDS011;61127;55.826;37.046;2022-12-20T07:01:24;14.48;;;5.70;;
70320;SDS011;61127;55.826;37.046;2022-12-20T07:03:49;14.93;;;4.63;;
70320;SDS011;61127;55.826;37.046;2022-12-20T07:06:15;15.77;;;4.90;;
70320;SDS011;61127;55.826;37.046;2022-12-20T07:08:40;15.75;;;5.00;;
70320;SDS011;61127;55.826;37.046;2022-12-20T07:11:06;14.37;;;5.00;;
70320;SDS011;61127;55.826;37.046;2022-12-20T07:13:32;16.63;;;5.33;;
70320;SDS011;61127;55.826;37.046;2022-12-20T07:15:58;15.48;;;5.28;;
70320;SDS011;61127;55.826;37.046;2022-12-20T07:18:24;15.23;;;5.18;;
70320;SDS011;61127;55.826;37.046;2022-12-20T07:20:50;14.23;;;4.63;;
70320;SDS011;61127;55.826;37.046;2022-12-20T07:23:15;14.27;;;4.53;;
70320;SDS011;61127;55.826;37.046;2022-12-20T07:25:42;13.27;;;4.20;;
70320;SDS011;61127;55.826;37.046;2022-12-20T07:28:07;12.82;;;4.88;;
70320;SDS011;61127;55.826;37.046;2022-12-20T07:30:33;14.10;;;4.97;;
70320;SDS011;61127;55.826;37.046;2022-12-20T07:33:10;15.00;;;4.63;;
70320;SDS011;61127;55.826;37.046;2022-12-20T07:35:46;16.08;;;4.32;;
70320;SDS011;61127;55.826;37.046;2022-12-20T07:38:12;15.83;;;4.87;;
70320;SDS011;61127;55.826;37.046;2022-12-20T07:40:41;13.02;;;4.53;;
70320;SDS011;61127;55.826;37.046;2022-12-20T07:43:08;12.40;;;4.25;;
70320;SDS011;61127;55.826;37.046;2022-12-20T07:45:35;14.98;;;4.68;;
70320;SDS011;61127;55.826;37.046;2022-12-20T07:48:05;13.38;;;4.40;;
70320;SDS011;61127;55.826;37.046;2022-12-20T07:50:31;12.00;;;4.37;;
70320;SDS011;61127;55.826;37.046;2022-12-20T07:52:57;11.98;;;4.38;;
70320;SDS011;61127;55.826;37.046;2022-12-20T07:55:24;11.65;;;4.03;;
70320;SDS011;61127;55.826;37.046;2022-12-20T07:57:54;14.82;;;4.38;;
70320;SDS011;61127;55.826;37.046;2022-12-20T08:00:21;11.93;;;3.80;;
70320;SDS011;61127;55.826;37.046;2022-12-20T08:02:48;9.97;;;3.10;;
70320;SDS011;61127;55.826;37.046;2022-12-20T08:05:17;8.65;;;3.50;;
70320;SDS011;61127;55.826;37.046;2022-12-20T08:07:45;12.93;;;4.00;;
70320;SDS011;61127;55.826;37.046;2022-12-20T08:10:11;8.97;;;3.00;;
70320;SDS011;61127;55.826;37.046;2022-12-20T08:12:38;10.50;;;3.97;;
70320;SDS011;61127;55.826;37.046;2022-12-20T08:15:09;10.98;;;3.75;;
70320;SDS011;61127;55.826;37.046;2022-12-20T08:17:35;9.30;;;3.35;;
70320;SDS011;61127;55.826;37.046;2022-12-20T08:20:01;10.57;;;3.10;;
70320;SDS011;61127;55.826;37.046;2022-12-20T08:22:27;10.45;;;3.10;;
70320;SDS011;61127;55.826;37.046;2022-12-20T08:24:53;8.55;;;3.08;;
70320;SDS011;61127;55.826;37.046;2022-12-20T08:27:19;6.85;;;2.53;;
70320;SDS011;61127;55.826;37.046;2022-12-20T08:29:45;6.85;;;2.60;;
70320;SDS011;61127;55.826;37.046;2022-12-20T08:32:10;9.20;;;3.30;;
70320;SDS011;61127;55.826;37.046;2022-12-20T08:34:39;8.90;;;2.83;;
70320;SDS011;61127;55.826;37.046;2022-12-20T08:37:05;6.30;;;2.28;;
70320;SDS011;61127;55.826;37.046;2022-12-20T08:39:30;8.40;;;2.33;;
70320;SDS011;61127;55.826;37.046;2022-12-20T08:41:56;7.93;;;2.63;;
70320;SDS011;61127;55.826;37.046;2022-12-20T08:44:21;7.78;;;2.47;;
70320;SDS011;61127;55.826;37.046;2022-12-20T08:46:48;8.18;;;3.00;;
70320;SDS011;61127;55.826;37.046;2022-12-20T08:49:14;9.32;;;3.30;;
70320;SDS011;61127;55.826;37.046;2022-12-20T08:51:39;7.67;;;3.03;;
70320;SDS011;61127;55.826;37.046;2022-12-20T08:54:05;8.05;;;3.30;;
70320;SDS011;61127;55.826;37.046;2022-12-20T08:56:30;7.60;;;2.57;;
70320;SDS011;61127;55.826;37.046;2022-12-20T08:58:56;6.40;;;2.47;;
70320;SDS011;61127;55.826;37.046;2022-12-20T09:01:21;7.43;;;2.50;;
70320;SDS011;61127;55.826;37.046;2022-12-20T09:03:47;5.10;;;1.80;;
70320;SDS011;61127;55.826;37.046;2022-12-20T09:06:17;7.85;;;2.85;;
70320;SDS011;61127;55.826;37.046;2022-12-20T09:08:44;9.00;;;2.73;;
70320;SDS011;61127;55.826;37.046;2022-12-20T09:13:40;7.85;;;3.10;;
70320;SDS011;61127;55.826;37.046;2022-12-20T09:16:07;8.07;;;3.20;;
70320;SDS011;61127;55.826;37.046;2022-12-20T09:18:33;7.25;;;2.72;;
70320;SDS011;61127;55.826;37.046;2022-12-20T09:21:02;6.83;;;2.50;;
70320;SDS011;61127;55.826;37.046;2022-12-20T09:23:28;7.40;;;2.50;;
70320;SDS011;61127;55.826;37.046;2022-12-20T09:26:00;6.53;;;2.38;;
70320;SDS011;61127;55.826;37.046;2022-12-20T09:28:25;8.07;;;2.67;;
70320;SDS011;61127;55.826;37.046;2022-12-20T09:30:51;6.43;;;2.13;;
70320;SDS011;61127;55.826;37.046;2022-12-20T09:33:16;8.10;;;3.47;;
70320;SDS011;61127;55.826;37.046;2022-12-20T09:35:44;10.50;;;3.30;;
70320;SDS011;61127;55.826;37.046;2022-12-20T09:38:09;7.40;;;2.38;;
70320;SDS011;61127;55.826;37.046;2022-12-20T09:40:35;6.47;;;2.75;;
70320;SDS011;61127;55.826;37.046;2022-12-20T09:43:03;8.00;;;2.63;;
70320;SDS011;61127;55.826;37.046;2022-12-20T09:47:57;9.13;;;2.92;;
70320;SDS011;61127;55.826;37.046;2022-12-20T09:50:32;7.23;;;2.80;;
70320;SDS011;61127;55.826;37.046;2022-12-20T09:53:10;8.50;;;2.72;;
70320;SDS011;61127;55.826;37.046;2022-12-20T09:55:43;7.97;;;2.88;;
70320;SDS011;61127;55.826;37.046;2022-12-20T09:58:17;7.47;;;2.63;;
70320;SDS011;61127;55.826;37.046;2022-12-20T10:00:46;7.68;;;2.40;;
70320;SDS011;61127;55.826;37.046;2022-12-20T10:03:17;8.13;;;2.97;;
70320;SDS011;61127;55.826;37.046;2022-12-20T10:05:54;7.10;;;2.95;;
70320;SDS011;61127;55.826;37.046;2022-12-20T10:08:28;9.65;;;2.75;;
70320;SDS011;61127;55.826;37.046;2022-12-20T10:11:03;7.07;;;2.70;;
70320;SDS011;61127;55.826;37.046;2022-12-20T10:20:58;7.13;;;2.57;;
70320;SDS011;61127;55.826;37.046;2022-12-20T10:23:34;6.68;;;2.80;;
70320;SDS011;61127;55.826;37.046;2022-12-20T10:26:04;6.57;;;2.53;;
70320;SDS011;61127;55.826;37.046;2022-12-20T10:28:33;6.05;;;2.47;;
70320;SDS011;61127;55.826;37.046;2022-12-20T10:31:12;6.50;;;2.20;;
70320;SDS011;61127;55.826;37.046;2022-12-20T10:33:38;7.85;;;2.53;;
70320;SDS011;61127;55.826;37.046;2022-12-20T10:36:20;9.30;;;3.20;;
70320;SDS011;61127;55.826;37.046;2022-12-20T10:38:48;6.35;;;2.33;;
70320;SDS011;61127;55.826;37.046;2022-12-20T10:41:15;8.88;;;3.03;;
70320;SDS011;61127;55.826;37.046;2022-12-20T10:43:42;6.75;;;2.42;;
70320;SDS011;61127;55.826;37.046;2022-12-20T10:46:08;7.47;;;3.15;;
70320;SDS011;61127;55.826;37.046;2022-12-20T10:48:35;8.03;;;3.00;;
70320;SDS011;61127;55.826;37.046;2022-12-20T10:51:03;9.90;;;3.58;;
70320;SDS011;61127;55.826;37.046;2022-12-20T10:53:30;6.30;;;2.55;;
70320;SDS011;61127;55.826;37.046;2022-12-20T10:56:17;7.47;;;2.80;;
70320;SDS011;61127;55.826;37.046;2022-12-20T10:58:50;7.90;;;2.95;;
70320;SDS011;61127;55.826;37.046;2022-12-20T11:01:17;8.67;;;2.87;;
70320;SDS011;61127;55.826;37.046;2022-12-20T11:03:51;6.97;;;2.70;;
70320;SDS011;61127;55.826;37.046;2022-12-20T11:08:46;7.15;;;2.80;;
70320;SDS011;61127;55.826;37.046;2022-12-20T11:11:14;6.47;;;2.65;;
70320;SDS011;61127;55.826;37.046;2022-12-20T11:13:41;6.43;;;2.50;;
70320;SDS011;61127;55.826;37.046;2022-12-20T11:16:53;5.72;;;2.08;;
70320;SDS011;61127;55.826;37.046;2022-12-20T11:18:55;4.97;;;2.00;;
70320;SDS011;61127;55.826;37.046;2022-12-20T11:21:41;8.90;;;3.45;;
70320;SDS011;61127;55.826;37.046;2022-12-20T11:24:10;7.82;;;2.83;;
70320;SDS011;61127;55.826;37.046;2022-12-20T11:26:45;8.23;;;2.30;;
70320;SDS011;61127;55.826;37.046;2022-12-20T11:37:19;6.78;;;2.40;;
70320;SDS011;61127;55.826;37.046;2022-12-20T11:39:49;7.67;;;3.27;;
70320;SDS011;61127;55.826;37.046;2022-12-20T11:44:48;8.02;;;2.55;;
70320;SDS011;61127;55.826;37.046;2022-12-20T11:57:05;9.20;;;3.78;;
70320;SDS011;61127;55.826;37.046;2022-12-20T11:59:44;7.60;;;2.72;;
70320;SDS011;61127;55.826;37.046;2022-12-20T12:02:13;8.13;;;2.83;;
70320;SDS011;61127;55.826;37.046;2022-12-20T12:04:47;8.80;;;2.78;;
70320;SDS011;61127;55.826;37.046;2022-12-20T12:07:18;6.18;;;2.33;;
70320;SDS011;61127;55.826;37.046;2022-12-20T12:10:01;9.43;;;2.90;;
70320;SDS011;61127;55.826;37.046;2022-12-20T12:12:37;5.95;;;2.17;;
70320;SDS011;61127;55.826;37.046;2022-12-20T12:17:51;8.38;;;2.90;;
70320;SDS011;61127;55.826;37.046;2022-12-20T12:22:49;8.80;;;3.20;;
70320;SDS011;61127;55.826;37.046;2022-12-20T12:25:16;8.80;;;2.65;;
70320;SDS011;61127;55.826;37.046;2022-12-20T12:27:42;8.77;;;3.08;;
70320;SDS011;61127;55.826;37.046;2022-12-20T12:30:11;10.55;;;2.97;;
70320;SDS011;61127;55.826;37.046;2022-12-20T12:32:38;8.75;;;3.10;;
70320;SDS011;61127;55.826;37.046;2022-12-20T12:45:59;7.40;;;3.15;;
70320;SDS011;61127;55.826;37.046;2022-12-20T12:51:11;9.70;;;3.25;;
70320;SDS011;61127;55.826;37.046;2022-12-20T12:53:48;10.00;;;3.05;;
70320;SDS011;61127;55.826;37.046;2022-12-20T13:09:17;11.00;;;3.90;;
70320;SDS011;61127;55.826;37.046;2022-12-20T13:11:43;8.43;;;3.88;;
70320;SDS011;61127;55.826;37.046;2022-12-20T13:16:38;9.20;;;3.20;;
70320;SDS011;61127;55.826;37.046;2022-12-20T13:19:13;7.57;;;3.10;;
70320;SDS011;61127;55.826;37.046;2022-12-20T13:21:39;9.13;;;3.38;;
70320;SDS011;61127;55.826;37.046;2022-12-20T13:26:51;8.05;;;3.03;;
70320;SDS011;61127;55.826;37.046;2022-12-20T13:29:22;13.00;;;3.80;;
70320;SDS011;61127;55.826;37.046;2022-12-20T13:31:48;9.27;;;3.40;;
70320;SDS011;61127;55.826;37.046;2022-12-20T13:34:34;10.25;;;3.08;;
70320;SDS011;61127;55.826;37.046;2022-12-20T13:37:00;9.20;;;3.25;;
70320;SDS011;61127;55.826;37.046;2022-12-20T13:42:12;9.85;;;3.42;;
70320;SDS011;61127;55.826;37.046;2022-12-20T13:44:42;9.63;;;3.30;;
70320;SDS011;61127;55.826;37.046;2022-12-20T13:47:13;8.90;;;3.33;;
70320;SDS011;61127;55.826;37.046;2022-12-20T13:49:42;9.98;;;3.38;;
70320;SDS011;61127;55.826;37.046;2022-12-20T13:52:26;9.20;;;3.17;;
70320;SDS011;61127;55.826;37.046;2022-12-20T13:54:57;11.65;;;3.85;;
70320;SDS011;61127;55.826;37.046;2022-12-20T13:57:58;12.15;;;3.72;;
70320;SDS011;61127;55.826;37.046;2022-12-20T14:00:17;8.47;;;3.17;;
70320;SDS011;61127;55.826;37.046;2022-12-20T14:02:43;11.43;;;3.53;;
70320;SDS011;61127;55.826;37.046;2022-12-20T14:05:19;10.48;;;3.92;;
70320;SDS011;61127;55.826;37.046;2022-12-20T14:07:46;9.93;;;3.88;;
70320;SDS011;61127;55.826;37.046;2022-12-20T14:10:26;10.00;;;3.53;;
70320;SDS011;61127;55.826;37.046;2022-12-20T14:12:53;9.18;;;3.45;;
70320;SDS011;61127;55.826;37.046;2022-12-20T14:15:24;9.90;;;3.35;;
70320;SDS011;61127;55.826;37.046;2022-12-20T14:17:53;10.10;;;3.28;;
70320;SDS011;61127;55.826;37.046;2022-12-20T14:20:23;8.00;;;3.10;;
70320;SDS011;61127;55.826;37.046;2022-12-20T14:23:08;8.93;;;3.55;;
70320;SDS011;61127;55.826;37.046;2022-12-20T14:25:46;11.65;;;3.60;;
70320;SDS011;61127;55.826;37.046;2022-12-20T14:28:34;11.80;;;3.80;;
70320;SDS011;61127;55.826;37.046;2022-12-20T14:31:00;10.65;;;3.72;;
70320;SDS011;61127;55.826;37.046;2022-12-20T14:33:29;11.98;;;3.95;;
70320;SDS011;61127;55.826;37.046;2022-12-20T14:35:55;9.63;;;3.13;;
70320;SDS011;61127;55.826;37.046;2022-12-20T14:38:28;9.63;;;4.22;;
70320;SDS011;61127;55.826;37.046;2022-12-20T14:40:57;7.80;;;3.20;;
70320;SDS011;61127;55.826;37.046;2022-12-20T14:43:32;13.73;;;4.05;;
70320;SDS011;61127;55.826;37.046;2022-12-20T14:46:12;9.40;;;3.22;;
70320;SDS011;61127;55.826;37.046;2022-12-20T14:48:39;10.73;;;3.97;;
70320;SDS011;61127;55.826;37.046;2022-12-20T14:51:05;11.87;;;3.30;;
70320;SDS011;61127;55.826;37.046;2022-12-20T14:53:31;11.80;;;3.80;;
70320;SDS011;61127;55.826;37.046;2022-12-20T14:55:57;9.90;;;4.33;;
70320;SDS011;61127;55.826;37.046;2022-12-20T15:03:20;11.82;;;4.40;;
70320;SDS011;61127;55.826;37.046;2022-12-20T15:05:55;11.88;;;4.63;;
70320;SDS011;61127;55.826;37.046;2022-12-20T15:08:30;10.05;;;3.88;;
70320;SDS011;61127;55.826;37.046;2022-12-20T15:15:52;10.18;;;4.05;;
70320;SDS011;61127;55.826;37.046;2022-12-20T15:18:18;10.60;;;3.78;;
70320;SDS011;61127;55.826;37.046;2022-12-20T15:20:47;10.33;;;3.67;;
70320;SDS011;61127;55.826;37.046;2022-12-20T15:23:14;12.40;;;4.70;;
70320;SDS011;61127;55.826;37.046;2022-12-20T15:25:41;10.70;;;3.85;;
70320;SDS011;61127;55.826;37.046;2022-12-20T15:28:17;10.75;;;3.92;;
70320;SDS011;61127;55.826;37.046;2022-12-20T15:30:46;10.35;;;4.05;;
70320;SDS011;61127;55.826;37.046;2022-12-20T15:33:16;12.30;;;4.20;;
70320;SDS011;61127;55.826;37.046;2022-12-20T15:35:43;11.40;;;4.53;;
70320;SDS011;61127;55.826;37.046;2022-12-20T15:38:12;11.30;;;3.88;;
70320;SDS011;61127;55.826;37.046;2022-12-20T15:40:38;12.00;;;4.00;;
70320;SDS011;61127;55.826;37.046;2022-12-20T15:43:04;11.75;;;3.97;;
70320;SDS011;61127;55.826;37.046;2022-12-20T15:45:29;9.98;;;3.75;;
70320;SDS011;61127;55.826;37.046;2022-12-20T15:47:56;11.43;;;3.97;;
70320;SDS011;61127;55.826;37.046;2022-12-20T15:50:22;12.07;;;4.30;;
70320;SDS011;61127;55.826;37.046;2022-12-20T15:52:47;11.67;;;4.27;;
70320;SDS011;61127;55.826;37.046;2022-12-20T15:55:16;11.30;;;4.38;;
70320;SDS011;61127;55.826;37.046;2022-12-20T15:57:42;10.50;;;4.03;;
70320;SDS011;61127;55.826;37.046;2022-12-20T16:00:08;11.45;;;4.57;;
70320;SDS011;61127;55.826;37.046;2022-12-20T16:02:36;14.48;;;4.50;;
70320;SDS011;61127;55.826;37.046;2022-12-20T16:07:33;10.02;;;3.92;;
70320;SDS011;61127;55.826;37.046;2022-12-20T16:09:58;11.33;;;4.50;;
70320;SDS011;61127;55.826;37.046;2022-12-20T16:12:25;13.77;;;4.30;;
70320;SDS011;61127;55.826;37.046;2022-12-20T16:14:52;11.07;;;4.07;;
70320;SDS011;61127;55.826;37.046;2022-12-20T16:17:18;11.45;;;4.20;;
70320;SDS011;61127;55.826;37.046;2022-12-20T16:19:43;10.27;;;3.90;;
70320;SDS011;61127;55.826;37.046;2022-12-20T16:22:13;9.83;;;4.43;;
70320;SDS011;61127;55.826;37.046;2022-12-20T16:24:39;13.38;;;4.50;;
70320;SDS011;61127;55.826;37.046;2022-12-20T16:27:05;11.35;;;4.63;;
70320;SDS011;61127;55.826;37.046;2022-12-20T16:29:30;17.20;;;5.67;;